This is the latest recevied weather packets stored in our database for station/object N8ESC. If no packets are shown the sender has not sent any weather packets the latest 1 day(s).
| Time | Temp. | Humidity | Pressure | Rain* | Wind** | Luminosity | Snow |
|---|---|---|---|---|---|---|---|
| 1778029802 | 6.11° C | 61% | 1007.9 hPa | 0 mm | 0.45 m/s, 37° | 1 W/m² | - |
| 1778029502 | 6.11° C | 60% | 1008 hPa | 0 mm | 1.79 m/s, 12° | 1 W/m² | - |
| 1778029197 | 6.11° C | 61% | 1007.7 hPa | 0 mm | 1.34 m/s, 17° | 2 W/m² | - |
| 1778028895 | 6.11° C | 61% | 1007.8 hPa | 0 mm | 1.79 m/s, 13° | 3 W/m² | - |
| 1778028590 | 6.11° C | 59% | 1007.7 hPa | 0 mm | 1.79 m/s, 30° | 4 W/m² | - |
| 1778028288 | 6.67° C | 60% | 1007.6 hPa | 0 mm | 0.89 m/s, 40° | 6 W/m² | - |
| 1778027984 | 7.78° C | 56% | 1007.5 hPa | 0 mm | 1.34 m/s, 15° | 8 W/m² | - |
| 1778027681 | 7.78° C | 44% | 1007.4 hPa | 0 mm | 1.79 m/s, 308° | 10 W/m² | - |
| 1778027377 | 8.33° C | 43% | 1007.4 hPa | 0 mm | 1.79 m/s, 320° | 12 W/m² | - |
| 1778027073 | 8.33° C | 43% | 1007.5 hPa | 0 mm | 0.89 m/s, 280° | 16 W/m² | - |
| 1778026769 | 8.33° C | 43% | 1007.4 hPa | 0 mm | 0.89 m/s, 280° | 18 W/m² | - |
| 1778026466 | 8.33° C | 43% | 1007.2 hPa | 0 mm | 1.79 m/s, 259° | 22 W/m² | - |
| 1778026163 | 8.33° C | 43% | 1007.3 hPa | 0 mm | 1.79 m/s, 10° | 25 W/m² | - |
| 1778025861 | 8.33° C | 43% | 1007.2 hPa | 0 mm | 1.79 m/s, 309° | 33 W/m² | - |
| 1778025557 | 8.33° C | 43% | 1007.1 hPa | 0 mm | 2.24 m/s, 359° | 39 W/m² | - |
| 1778025255 | 8.33° C | 43% | 1007 hPa | 0 mm | 2.24 m/s, 327° | 42 W/m² | - |
| 1778024952 | 8.33° C | 42% | 1006.8 hPa | 0 mm | 4.02 m/s, 285° | 47 W/m² | - |
| 1778024650 | 8.89° C | 41% | 1006.8 hPa | 0 mm | 3.58 m/s, 283° | 55 W/m² | - |
| 1778024346 | 8.89° C | 40% | 1006.8 hPa | 0 mm | 3.58 m/s, 307° | 58 W/m² | - |
| 1778024044 | 8.89° C | 40% | 1006.5 hPa | 0 mm | 3.13 m/s, 333° | 67 W/m² | - |
| 1778023741 | 9.44° C | 40% | 1006.4 hPa | 0 mm | 2.24 m/s, 300° | 82 W/m² | - |
| 1778023439 | 9.44° C | 40% | 1006.4 hPa | 0 mm | 2.24 m/s, 288° | 84 W/m² | - |
| 1778023135 | 8.89° C | 40% | 1006.4 hPa | 0 mm | 2.68 m/s, 241° | 88 W/m² | - |
| 1778022833 | 8.89° C | 40% | 1006.4 hPa | 0 mm | 1.79 m/s, 307° | 82 W/m² | - |
| 1778022531 | 8.89° C | 41% | 1006.5 hPa | 0 mm | 2.24 m/s, 156° | 81 W/m² | - |
* Rain latest hour (hover to see other rain measurements)
** Current wind speed in m/s (hover to see current wind gust speed)